Kirovsk, Russia
Current Conditions -  °F | °C
As of 9:00 PM on Thursday 18 Dec 2014 (Local Time) from ULMM Reporting Station
Snow Showers Snow Showers  
Wind Chill: 15°   Ceiling: 1300
Heat Index: 25°   Visibility: 4mi
Dew Point: 21°   Wind: 9mph
Humidity: 86%   Direction: 290°WNW
Pressure: 29.18"   Gusts: NA
Location:  67.61°N, 33.67°E
Report Text: ULMM 181800Z 29004MPS 6000 -SHSN BKN013CB M04/M06 Q0988 NOSIGRMK QFE734 31590537
Loading
Personal Weather Stations






























Interactive Weather Map New forecast layout! Learn more

10-Day Weather Forecast

Advertisements
Track Severe Weather on mobile